My Meet Scores
Kennedy Stiff, Gym Kinetics Gymnastics - MyMeetScores.com
Top100 | Top Teams | Upcoming Meets | Completed Meets | Latest | Add Scores | Help| Support | Bookmark and Share

Kennedy Stiff, Gym Kinetics Gymnastics
Personal Bests
LevelVault BarsBeamFloorAA
49.4509.500 9.5259.55037.650
59.3009.000 9.3759.37536.550
69.2259.175 9.6509.55037.550
Meet Scores
Date Meet Team Session Level Division Vault Bars Beam Floor AA
2015-05-02 2015 Illinois Level 6, 7 State Championships Gym Kinetics Gymnastics 6 Sr.C 8.975 8 9.025 5 9.225 7 9.550 2 36.775 4
2015-03-13 2015 Lucky Invite Gym Kinetics Gymnastics B2 6 Sr.A 9.225 5 9.175 3T 9.650 2 9.500 1T 37.550 1
2015-02-27 Gasparilla Classic Gym Kinetics Gymnastics A6 6 L6 A6 grp5 8.950 7 9.100 3 9.500 1 9.400 2T 36.950 3
2015-01-23 King Arthur Invitational Gym Kinetics Gymnastics 1 6 SrB 8.600 9 8.950 1 9.375 4 9.250 6 36.175 3
2015-01-09 Legacy Elite Winter Classic 2015 Flipstar Gymnastics Academy 6A 6 Jr B 9.100 2T 9.100 1 9.375 3 9.100 7 36.675 3
2014-04-04 2014 Illinois Level 5 and XCEL State Championship Gym Kinetics Gymnastics 5 Sr.B 9.300 8 8.950 8 8.925 20 9.375 5 36.550 11
2014-02-15 BIG Dream Classic 2014 Gym Kinetics Gymnastics 4B 5 Junior B 8.750 8 9.000 4 9.375 1 9.375 1 36.500 1
2014-01-31 Circle Of Stars Gym Kinetics Gymnastics 5 5 12 9.150 4 8.650 2 9.150 3 9.025 4 35.975 3
2013-12-19 2013 Hawaiian Pineapple Classic Gym Kinetics Gymnastics A9 5 12+ 8.800 6 8.450 6T 8.950 1 9.000 3 35.200 4
2013-12-06 Ultimate Wish Classic Gym Kinetics Gymnastics A 5 Senior13 8.575 11 2.500 14 9.125 4 9.000 8 29.200 17
2013-04-26 2013 Illinois Level 5 and Xcel State Meet Gym Kinetics Gymnastics 5 Sr.B 9.000 13 8.050 30 8.725 18 9.100 16 34.875 26
2013-02-22 Midwest Open 2013 Gym Kinetics Gymnastics 10B 5 11 8.300 11 7.450 9 9.350 1 8.950 8 34.050 9
2013-02-16 BIG Dream Classic 2013 Gym Kinetics Gymnastics 7A 5 Senior 9.275 3T 8.850 8 9.250 4 9.100 2 36.475 3
2013-01-11 Circle Of Stars Gym Kinetics Gymnastics 5 11 8.600 11 8.475 9 9.050 6 8.625 12 34.750 10
2012-12-13 2012 Hawaiin Pineapple Classic Gym Kinetics Gymnastics B5 5 age 11 8.350 6 0.000 12 7.200 12 8.250 7T 23.800 12
2012-11-30 Ultimate Wish Classic 2012 Gym Kinetics Gymnastics 5 L5 Sr B S11 8.350 9 8.900 5 8.675 7 8.900 3 34.825 4
2012-11-09 2012 Illinois Judges Cup Gym Kinetics Gymnastics 1B 5 11+ 8.200 13 7.750 9 7.100 13 8.950 4 32.000 12
2012-04-20 2012 Illinois Level 4 State Championships Gym Kinetics Gymnastics 7 4 Sr.B 9.200 22 9.400 8 9.500 3 9.550 1 37.650 3
2012-02-25 Midwest Open 2012 Flipstar Gymnastics Academy 6A 4 Lvl 4: 10 & up 9.450 1 9.500 1 9.525 1 9.175 4 37.650 1
2012-02-10 IGI Chicago Style Gymnastics Gym Kinetics Gymnastics 231 4 10 & Over 9.050 10 9.150 5T 9.050 7T 9.150 2 36.400 5
2012-01-28 2012 King Arthur Invitational Gym Kinetics Gymnastics 1 4 Sr.C 8.900 8 8.925 9 9.050 9 8.700 10 35.575 8
2012-01-06 2012 St. Jude Invite Flipstar Gymnastics Academy 4B 4 Senior 8.700 10 8.075 15 8.925 3 8.225 13 33.925 11
2011-12-15 2011 Hawaiian Pineapple Classic Flipstar Gymnastics Academy 4B 4 10 8.950 6T 8.900 9 8.325 8 8.400 7T 34.575 7

www.lazysuits.com